createdAt,value
2022-08-07T00:02:35.938Z,12.01
2022-08-07T00:04:09.236Z,11.89
2022-08-07T00:06:51.267Z,11.92
2022-08-07T00:09:20.870Z,11.94
2022-08-07T00:11:55.760Z,11.94
2022-08-07T00:14:30.495Z,11.93
2022-08-07T00:16:59.669Z,11.88
2022-08-07T00:20:00.318Z,11.86
2022-08-07T00:22:14.912Z,11.84
2022-08-07T00:24:58.951Z,11.82
2022-08-07T00:27:25.913Z,11.75
2022-08-07T00:30:04.419Z,11.71
2022-08-07T00:32:49.239Z,11.72
2022-08-07T00:35:17.468Z,11.68
2022-08-07T00:37:47.649Z,11.63
2022-08-07T00:40:15.647Z,11.54
2022-08-07T00:43:02.065Z,11.54
2022-08-07T00:45:29.299Z,11.55
2022-08-07T00:48:09.701Z,11.57
2022-08-07T00:50:51.274Z,11.56
2022-08-07T00:53:20.221Z,11.53
2022-08-07T00:56:02.894Z,11.46
2022-08-07T00:58:32.400Z,11.43
2022-08-07T01:00:59.048Z,11.35
2022-08-07T01:03:56.942Z,11.27
2022-08-07T01:06:16.605Z,11.27
2022-08-07T01:08:53.311Z,11.23
2022-08-07T01:12:23.838Z,11.11
2022-08-07T01:14:07.844Z,11.09
2022-08-07T01:16:36.724Z,11.04
2022-08-07T01:19:18.315Z,11.00
2022-08-07T01:21:47.123Z,10.99
2022-08-07T01:24:14.270Z,11.00
2022-08-07T01:26:51.708Z,11.02
2022-08-07T01:29:20.191Z,10.98
2022-08-07T01:31:49.288Z,10.97
2022-08-07T01:34:18.068Z,10.97
2022-08-07T01:36:52.565Z,10.91
2022-08-07T01:39:40.702Z,10.89
2022-08-07T01:42:39.338Z,10.84
2022-08-07T01:45:04.973Z,10.78
2022-08-07T01:48:19.571Z,10.76
2022-08-07T01:50:29.074Z,10.75
2022-08-07T01:52:58.429Z,10.73
2022-08-07T01:55:38.737Z,10.69
2022-08-07T01:58:27.331Z,10.63
2022-08-07T02:01:10.012Z,10.60
2022-08-07T02:03:55.931Z,10.44
2022-08-07T02:06:31.808Z,10.42
2022-08-07T02:09:08.920Z,10.38
2022-08-07T02:12:02.955Z,10.31
2022-08-07T02:14:40.379Z,10.30
2022-08-07T02:17:10.891Z,10.33
2022-08-07T02:20:06.609Z,10.36
2022-08-07T02:22:33.118Z,10.40
2022-08-07T02:25:00.766Z,10.40
2022-08-07T02:27:34.232Z,10.41
2022-08-07T02:30:07.165Z,10.45
2022-08-07T02:32:38.718Z,10.45
2022-08-07T02:35:10.795Z,10.42
2022-08-07T02:37:43.929Z,10.37
2022-08-07T02:40:29.967Z,10.39
2022-08-07T02:42:58.822Z,10.37
2022-08-07T02:45:58.749Z,10.39
2022-08-07T02:48:15.535Z,10.41
2022-08-07T02:50:44.048Z,10.39
2022-08-07T02:53:15.145Z,10.32
2022-08-07T02:56:03.413Z,10.30
2022-08-07T02:58:33.801Z,10.25
2022-08-07T03:01:03.094Z,10.20
2022-08-07T03:03:49.174Z,10.20
2022-08-07T03:06:26.184Z,10.20
2022-08-07T03:09:01.620Z,10.18
2022-08-07T03:11:39.018Z,10.13
2022-08-07T03:14:19.089Z,10.11
2022-08-07T03:16:49.296Z,10.09
2022-08-07T03:19:16.559Z,10.10
2022-08-07T03:21:50.811Z,10.11
2022-08-07T03:24:26.945Z,9.99
2022-08-07T03:26:58.885Z,9.93
2022-08-07T03:29:30.410Z,9.89
2022-08-07T03:31:57.923Z,9.91
2022-08-07T03:34:27.677Z,9.90
2022-08-07T03:36:55.113Z,9.90
2022-08-07T03:40:00.070Z,9.91
2022-08-07T03:42:12.510Z,9.91
2022-08-07T03:44:39.529Z,9.94
2022-08-07T03:47:11.537Z,9.90
2022-08-07T03:49:42.496Z,9.84
2022-08-07T03:52:22.283Z,9.83
2022-08-07T03:54:55.275Z,9.85
2022-08-07T03:58:32.675Z,9.86
2022-08-07T04:00:14.754Z,9.93
2022-08-07T04:02:47.328Z,10.00
2022-08-07T04:05:14.164Z,9.96
2022-08-07T04:07:46.581Z,9.92
2022-08-07T04:10:15.669Z,9.94
2022-08-07T04:12:48.791Z,9.94
2022-08-07T04:15:17.444Z,9.96
2022-08-07T04:18:32.001Z,9.99
2022-08-07T04:20:31.820Z,10.03
2022-08-07T04:23:06.256Z,10.11
2022-08-07T04:25:36.023Z,10.15
2022-08-07T04:28:08.124Z,10.31
2022-08-07T04:30:43.723Z,10.49
2022-08-07T04:33:24.378Z,11.30
2022-08-07T04:35:53.816Z,11.81
2022-08-07T04:38:20.813Z,12.09
2022-08-07T04:40:52.843Z,12.96
2022-08-07T04:44:10.532Z,13.30
2022-08-07T04:47:04.493Z,13.02
2022-08-07T04:49:37.818Z,13.25
2022-08-07T04:52:21.377Z,13.64
2022-08-07T04:58:14.874Z,13.52
2022-08-07T04:58:27.959Z,13.26
2022-08-07T05:01:13.885Z,13.14
2022-08-07T05:04:06.889Z,13.43
2022-08-07T05:06:59.127Z,13.81
2022-08-07T05:09:43.382Z,13.53
2022-08-07T05:12:26.707Z,14.34
2022-08-07T05:15:15.952Z,16.41
2022-08-07T05:17:57.065Z,18.71
2022-08-07T05:20:33.692Z,20.33
2022-08-07T05:23:15.780Z,21.24
2022-08-07T05:26:11.505Z,22.44
2022-08-07T05:28:35.204Z,22.89
2022-08-07T05:31:03.804Z,23.53
2022-08-07T05:33:31.500Z,23.82
2022-08-07T05:36:04.551Z,24.18
2022-08-07T05:38:58.200Z,24.73
2022-08-07T05:41:21.861Z,25.61
2022-08-07T05:44:08.000Z,26.43
2022-08-07T05:46:38.724Z,27.12
2022-08-07T05:49:11.781Z,27.58
2022-08-07T05:51:42.201Z,28.05
2022-08-07T05:54:30.199Z,28.47
2022-08-07T05:56:57.930Z,28.62
2022-08-07T05:59:26.274Z,28.33
2022-08-07T06:01:58.039Z,28.07
2022-08-07T06:04:30.274Z,27.38
2022-08-07T06:07:03.655Z,27.73
2022-08-07T06:10:03.849Z,27.70
2022-08-07T06:12:31.750Z,27.08
2022-08-07T06:15:05.823Z,27.27
2022-08-07T06:17:37.802Z,27.82
2022-08-07T06:20:06.549Z,27.22
2022-08-07T06:22:42.233Z,27.14
2022-08-07T06:25:28.683Z,26.93
2022-08-07T06:28:17.865Z,26.65
2022-08-07T06:30:54.240Z,26.90
2022-08-07T06:33:22.561Z,26.92
2022-08-07T06:36:12.831Z,26.67
2022-08-07T06:38:36.349Z,26.85
2022-08-07T06:41:09.640Z,27.54
2022-08-07T06:43:46.060Z,27.68
2022-08-07T06:46:15.361Z,27.70
2022-08-07T06:48:57.704Z,27.56
2022-08-07T06:51:30.991Z,26.55
2022-08-07T06:55:28.913Z,26.58
2022-08-07T06:56:51.518Z,26.48
2022-08-07T07:00:15.000Z,26.34
2022-08-07T07:02:15.484Z,27.25
2022-08-07T07:05:02.547Z,27.34
2022-08-07T07:08:00.331Z,28.21
2022-08-07T07:10:15.474Z,28.42
2022-08-07T07:12:55.860Z,28.68
2022-08-07T07:15:32.736Z,27.39
2022-08-07T07:18:47.439Z,27.57
2022-08-07T07:21:26.986Z,28.52
2022-08-07T07:24:12.558Z,28.96
2022-08-07T07:26:49.598Z,28.83
2022-08-07T07:29:39.519Z,27.48
2022-08-07T07:32:13.959Z,27.08
2022-08-07T07:34:48.654Z,28.10
2022-08-07T07:37:44.205Z,28.36
2022-08-07T07:40:10.283Z,28.78
2022-08-07T07:42:43.289Z,28.00
2022-08-07T07:45:15.949Z,26.32
2022-08-07T07:47:52.663Z,26.06
2022-08-07T07:50:34.368Z,26.80
2022-08-07T07:53:13.532Z,27.14
2022-08-07T07:55:54.803Z,26.59
2022-08-07T07:58:29.445Z,26.76
2022-08-07T08:00:58.396Z,27.95
2022-08-07T08:04:09.455Z,27.93
2022-08-07T08:06:15.598Z,27.00
2022-08-07T08:08:44.127Z,25.98
2022-08-07T08:11:13.870Z,24.54
2022-08-07T08:13:54.424Z,24.14
2022-08-07T08:16:29.960Z,23.38
2022-08-07T08:19:00.428Z,22.90
2022-08-07T08:22:03.373Z,23.10
2022-08-07T08:25:04.712Z,23.07
2022-08-07T08:27:56.530Z,22.40
2022-08-07T08:30:27.708Z,22.03
2022-08-07T08:32:58.523Z,22.36
2022-08-07T08:35:28.457Z,22.30
2022-08-07T08:38:00.532Z,22.55
2022-08-07T08:40:37.655Z,22.97
2022-08-07T08:43:15.978Z,23.45
2022-08-07T08:45:59.028Z,23.61
2022-08-07T08:48:39.740Z,23.52
2022-08-07T08:51:26.209Z,23.23
2022-08-07T08:54:29.828Z,23.48
2022-08-07T08:57:00.039Z,23.44
2022-08-07T08:59:48.076Z,23.65
2022-08-07T09:02:42.974Z,23.73
2022-08-07T09:05:19.997Z,23.71
2022-08-07T09:08:09.879Z,23.91
2022-08-07T09:10:47.579Z,23.84
2022-08-07T09:13:37.098Z,24.09
2022-08-07T09:16:24.060Z,23.98
2022-08-07T09:19:52.922Z,23.60
2022-08-07T09:22:22.941Z,23.43
2022-08-07T09:25:00.868Z,23.52
2022-08-07T09:27:59.813Z,23.43
2022-08-07T09:30:36.503Z,23.43
2022-08-07T09:33:52.770Z,23.87
2022-08-07T09:36:18.931Z,24.21
2022-08-07T09:39:27.416Z,23.91
2022-08-07T09:42:33.240Z,23.85
2022-08-07T09:47:25.530Z,23.72
2022-08-07T09:48:56.089Z,23.24
2022-08-07T09:52:16.613Z,23.44
2022-08-07T09:54:46.323Z,22.93
2022-08-07T09:57:37.566Z,23.17
2022-08-07T10:00:16.566Z,23.50
2022-08-07T10:04:06.115Z,23.45
2022-08-07T10:06:24.813Z,23.85
2022-08-07T10:09:15.828Z,24.30
2022-08-07T10:12:01.991Z,24.51
2022-08-07T10:15:03.461Z,24.40
2022-08-07T10:18:08.912Z,24.17
2022-08-07T10:24:21.531Z,23.97
2022-08-07T10:27:13.010Z,23.68
2022-08-07T10:30:06.557Z,24.00
2022-08-07T10:33:08.487Z,24.54
2022-08-07T10:36:18.030Z,24.88
2022-08-07T10:39:41.274Z,24.86
2022-08-07T10:42:31.131Z,24.86
2022-08-07T10:45:57.271Z,25.02
2022-08-07T10:48:34.992Z,25.02
2022-08-07T10:51:16.825Z,24.83
2022-08-07T10:54:11.064Z,25.13
2022-08-07T10:57:34.799Z,25.09
2022-08-07T11:00:36.204Z,24.79
2022-08-07T11:03:14.878Z,24.79
2022-08-07T11:06:18.314Z,24.85
2022-08-07T11:09:03.004Z,24.98
2022-08-07T11:11:51.940Z,25.26
2022-08-07T11:14:46.137Z,25.28
2022-08-07T11:17:43.136Z,25.27
2022-08-07T11:20:24.672Z,24.82
2022-08-07T11:23:30.531Z,24.63
2022-08-07T11:26:16.092Z,25.09
2022-08-07T11:28:53.476Z,25.09
2022-08-07T11:31:38.989Z,25.11
2022-08-07T11:34:19.348Z,25.27
2022-08-07T11:37:04.559Z,24.75
2022-08-07T11:39:59.945Z,24.19
2022-08-07T11:42:59.878Z,23.93
2022-08-07T11:46:09.856Z,23.69
2022-08-07T11:49:27.724Z,23.73
2022-08-07T11:52:03.033Z,24.50
2022-08-07T11:54:41.676Z,24.79
2022-08-07T11:58:00.592Z,24.87
2022-08-07T12:00:40.361Z,24.93
2022-08-07T12:03:42.160Z,25.38
2022-08-07T12:06:37.923Z,25.09
2022-08-07T12:09:16.759Z,24.92
2022-08-07T12:12:09.028Z,25.45
2022-08-07T12:15:00.281Z,25.14
2022-08-07T12:17:38.552Z,25.12
2022-08-07T12:20:36.556Z,25.09
2022-08-07T12:24:05.609Z,25.16
2022-08-07T12:26:23.615Z,24.78
2022-08-07T12:29:11.834Z,25.18
2022-08-07T12:32:12.391Z,25.27
2022-08-07T12:34:42.097Z,25.24
2022-08-07T12:37:23.461Z,24.86
2022-08-07T12:39:57.633Z,24.95
2022-08-07T12:42:28.591Z,25.20
2022-08-07T12:45:04.485Z,24.63
2022-08-07T12:47:55.016Z,24.78
2022-08-07T12:50:40.291Z,25.18
2022-08-07T12:54:37.158Z,25.15
2022-08-07T12:56:37.988Z,24.73
2022-08-07T12:59:08.393Z,24.44
2022-08-07T13:02:09.813Z,24.51
2022-08-07T13:05:02.325Z,24.80
2022-08-07T13:08:14.363Z,25.27
2022-08-07T13:10:55.951Z,25.44
2022-08-07T13:13:50.079Z,25.49
2022-08-07T13:16:31.149Z,25.53
2022-08-07T13:19:34.887Z,24.73
2022-08-07T13:22:27.549Z,24.68
2022-08-07T13:25:00.488Z,25.21
2022-08-07T13:28:12.603Z,24.78
2022-08-07T13:30:39.924Z,24.57
2022-08-07T13:34:31.527Z,24.44
2022-08-07T13:36:21.032Z,24.61
2022-08-07T13:39:12.954Z,24.48
2022-08-07T13:41:50.994Z,24.75
2022-08-07T13:44:34.426Z,25.09
2022-08-07T13:47:09.357Z,25.41
2022-08-07T13:50:35.519Z,25.24
2022-08-07T13:52:39.541Z,25.42
2022-08-07T13:55:19.590Z,25.45
2022-08-07T13:58:31.421Z,25.23
2022-08-07T14:01:10.683Z,24.71
2022-08-07T14:04:06.964Z,24.65
2022-08-07T14:06:35.836Z,24.79
2022-08-07T14:09:05.129Z,24.43
2022-08-07T14:12:00.077Z,24.36
2022-08-07T14:14:48.928Z,24.29
2022-08-07T14:18:12.689Z,24.33
2022-08-07T14:20:40.040Z,24.47
2022-08-07T14:23:31.674Z,24.82
2022-08-07T14:26:30.099Z,24.41
2022-08-07T14:29:10.669Z,24.90
2022-08-07T14:31:56.065Z,24.83
2022-08-07T14:34:29.530Z,24.80
2022-08-07T14:36:57.725Z,25.11
2022-08-07T14:40:16.275Z,24.85
2022-08-07T14:42:20.691Z,24.21
2022-08-07T14:44:53.544Z,24.30
2022-08-07T14:47:21.072Z,24.56
2022-08-07T14:49:56.923Z,24.46
2022-08-07T14:52:28.113Z,24.38
2022-08-07T14:54:58.589Z,24.42
2022-08-07T14:57:58.477Z,24.59
2022-08-07T15:00:20.651Z,24.69
2022-08-07T15:02:59.889Z,24.58
2022-08-07T15:05:27.537Z,24.73
2022-08-07T15:07:58.983Z,25.19
2022-08-07T15:10:29.689Z,24.97
2022-08-07T15:13:00.474Z,25.30
2022-08-07T15:18:45.258Z,24.01
2022-08-07T15:21:44.240Z,24.31
2022-08-07T15:25:14.409Z,24.54
2022-08-07T15:27:17.196Z,24.34
2022-08-07T15:30:08.531Z,24.34
2022-08-07T15:38:30.132Z,24.54
2022-08-07T15:41:22.755Z,24.64
2022-08-07T15:43:59.171Z,24.55
2022-08-07T15:49:17.342Z,24.77
2022-08-07T15:54:34.672Z,24.46
2022-08-07T15:57:27.650Z,24.45
2022-08-07T15:59:59.313Z,24.25
2022-08-07T16:02:29.062Z,23.85
2022-08-07T16:05:15.537Z,23.66
2022-08-07T16:08:32.107Z,23.31
2022-08-07T16:10:37.456Z,23.49
2022-08-07T16:13:57.555Z,23.43
2022-08-07T16:16:42.861Z,23.18
2022-08-07T16:19:16.223Z,23.52
2022-08-07T16:22:05.058Z,23.62
2022-08-07T16:24:55.163Z,23.54
2022-08-07T16:27:40.447Z,23.52
2022-08-07T16:30:29.749Z,23.93
2022-08-07T16:34:01.956Z,23.82
2022-08-07T16:36:22.114Z,23.99
2022-08-07T16:39:20.798Z,23.54
2022-08-07T16:42:38.080Z,23.28
2022-08-07T16:46:11.002Z,23.10
2022-08-07T16:48:58.464Z,22.95
2022-08-07T16:52:41.694Z,23.49
2022-08-07T16:55:11.492Z,23.72
2022-08-07T16:58:03.918Z,23.30
2022-08-07T17:00:40.773Z,23.05
2022-08-07T17:03:58.528Z,22.75
2022-08-07T17:06:31.347Z,22.93
2022-08-07T17:10:06.503Z,23.07
2022-08-07T17:13:24.450Z,23.17
2022-08-07T17:16:14.103Z,22.99
2022-08-07T17:19:15.537Z,23.15
2022-08-07T17:21:52.275Z,22.69
2022-08-07T17:24:47.242Z,22.34
2022-08-07T17:27:19.906Z,22.13
2022-08-07T17:30:19.886Z,22.02
2022-08-07T17:34:09.855Z,21.77
2022-08-07T17:36:20.853Z,21.63
2022-08-07T17:39:10.698Z,21.71
2022-08-07T17:42:04.914Z,21.68
2022-08-07T17:44:49.841Z,21.32
2022-08-07T17:47:38.404Z,21.07
2022-08-07T17:50:19.330Z,20.90
2022-08-07T17:52:59.854Z,20.71
2022-08-07T17:55:55.601Z,20.71
2022-08-07T17:58:32.963Z,20.68
2022-08-07T18:01:18.073Z,20.62
2022-08-07T18:04:06.995Z,20.57
2022-08-07T18:07:20.860Z,20.49
2022-08-07T18:10:06.691Z,20.46
2022-08-07T18:12:39.247Z,20.41
2022-08-07T18:15:19.049Z,20.37
2022-08-07T18:18:46.849Z,20.41
2022-08-07T18:21:29.546Z,20.35
2022-08-07T18:24:33.132Z,20.24
2022-08-07T18:27:17.284Z,20.09
2022-08-07T18:30:06.951Z,20.04
2022-08-07T18:32:52.845Z,20.02
2022-08-07T18:35:50.252Z,19.99
2022-08-07T18:38:58.642Z,19.88
2022-08-07T18:41:50.212Z,19.84
2022-08-07T18:45:40.030Z,19.73
2022-08-07T18:47:47.633Z,19.65
2022-08-07T18:50:39.042Z,19.61
2022-08-07T18:53:41.257Z,19.47
2022-08-07T18:56:58.265Z,19.32
2022-08-07T18:59:48.028Z,19.23
2022-08-07T19:02:42.604Z,19.18
2022-08-07T19:05:22.350Z,19.14
2022-08-07T19:08:07.014Z,19.12
2022-08-07T19:10:52.311Z,19.13
2022-08-07T19:13:43.994Z,19.10
2022-08-07T19:17:09.351Z,18.93
2022-08-07T19:20:07.562Z,18.90
2022-08-07T19:23:58.211Z,18.79
2022-08-07T19:26:24.686Z,18.73
2022-08-07T19:30:58.884Z,18.62
2022-08-07T19:32:10.876Z,18.51
2022-08-07T19:34:48.550Z,18.40
2022-08-07T19:37:20.471Z,18.35
2022-08-07T19:40:02.024Z,18.28
2022-08-07T19:42:40.262Z,18.21
2022-08-07T19:45:12.319Z,18.12
2022-08-07T19:47:42.219Z,18.05
2022-08-07T19:50:45.372Z,18.00
2022-08-07T19:52:58.424Z,17.92
2022-08-07T19:55:56.407Z,17.86
2022-08-07T19:58:15.741Z,17.81
2022-08-07T20:00:54.046Z,17.79
2022-08-07T20:03:34.977Z,17.69
2022-08-07T20:06:04.419Z,17.61
2022-08-07T20:08:35.573Z,17.60
2022-08-07T20:11:10.039Z,17.57
2022-08-07T20:13:50.153Z,17.50
2022-08-07T20:16:35.925Z,17.42
2022-08-07T20:19:05.625Z,17.37
2022-08-07T20:21:41.702Z,17.33
2022-08-07T20:24:18.002Z,17.32
2022-08-07T20:26:51.953Z,17.27
2022-08-07T20:29:49.129Z,17.24
2022-08-07T20:32:22.922Z,17.18
2022-08-07T20:35:04.807Z,17.13
2022-08-07T20:37:55.552Z,17.08
2022-08-07T20:40:33.025Z,17.03
2022-08-07T20:43:02.795Z,16.99
2022-08-07T20:46:26.923Z,16.94
2022-08-07T20:48:29.875Z,16.90
2022-08-07T20:51:02.926Z,16.87
2022-08-07T20:54:03.343Z,16.83
2022-08-07T20:56:25.946Z,16.79
2022-08-07T20:58:55.705Z,16.72
2022-08-07T21:01:25.961Z,16.69
2022-08-07T21:04:19.499Z,16.58
2022-08-07T21:06:53.638Z,16.50
2022-08-07T21:09:24.551Z,16.47
2022-08-07T21:12:00.218Z,16.41
2022-08-07T21:14:33.134Z,16.36
2022-08-07T21:18:03.662Z,16.29
2022-08-07T21:20:11.023Z,16.24
2022-08-07T21:22:54.526Z,16.23
2022-08-07T21:26:07.163Z,16.22
2022-08-07T21:28:48.174Z,16.16
2022-08-07T21:32:41.786Z,16.08
2022-08-07T21:34:33.833Z,16.05
2022-08-07T21:37:07.699Z,16.01
2022-08-07T21:39:59.446Z,15.99
2022-08-07T21:42:46.150Z,15.98
2022-08-07T21:46:10.584Z,15.94
2022-08-07T21:48:48.242Z,15.90
2022-08-07T21:51:32.088Z,15.84
2022-08-07T21:54:27.430Z,15.74
2022-08-07T21:57:39.510Z,15.68
2022-08-07T22:00:23.149Z,15.59
2022-08-07T22:03:05.726Z,15.56
2022-08-07T22:05:46.174Z,15.51
2022-08-07T22:08:24.753Z,15.47
2022-08-07T22:10:55.267Z,15.43
2022-08-07T22:13:50.532Z,15.39
2022-08-07T22:16:43.879Z,15.30
2022-08-07T22:19:23.509Z,15.12
2022-08-07T22:22:21.378Z,15.01
2022-08-07T22:25:10.979Z,14.90
2022-08-07T22:28:20.198Z,14.83
2022-08-07T22:31:05.565Z,14.78
2022-08-07T22:33:57.101Z,14.82
2022-08-07T22:37:01.485Z,14.83
2022-08-07T22:39:52.811Z,14.80
2022-08-07T22:42:25.942Z,14.79
2022-08-07T22:45:00.031Z,14.77
2022-08-07T22:47:38.246Z,14.59
2022-08-07T22:50:39.628Z,14.49
2022-08-07T22:54:07.709Z,14.40
2022-08-07T22:56:56.851Z,14.39
2022-08-07T22:59:52.682Z,14.40
2022-08-07T23:02:31.286Z,14.40
2022-08-07T23:06:08.908Z,14.37
2022-08-07T23:08:46.180Z,14.32
2022-08-07T23:11:41.331Z,14.32
2022-08-07T23:14:35.694Z,14.37
2022-08-07T23:17:37.818Z,14.41
2022-08-07T23:20:51.349Z,14.41
2022-08-07T23:24:05.855Z,14.41
2022-08-07T23:26:56.277Z,14.24
2022-08-07T23:30:35.990Z,14.09
2022-08-07T23:34:21.701Z,14.03
2022-08-07T23:36:00.225Z,13.98
2022-08-07T23:38:48.200Z,13.98
2022-08-07T23:42:04.870Z,13.95
2022-08-07T23:44:53.789Z,13.88
2022-08-07T23:47:48.311Z,13.76
2022-08-07T23:50:36.672Z,13.70
2022-08-07T23:53:22.697Z,13.66
2022-08-07T23:56:21.332Z,13.62
2022-08-07T23:58:59.097Z,13.59
